createdAt,value
2017-08-15T00:02:07.676Z,19.60
2017-08-15T00:04:35.529Z,19.60
2017-08-15T00:07:02.964Z,19.50
2017-08-15T00:09:30.402Z,19.50
2017-08-15T00:11:57.916Z,19.40
2017-08-15T00:14:25.365Z,19.40
2017-08-15T00:16:52.796Z,19.30
2017-08-15T00:19:20.395Z,19.30
2017-08-15T00:21:47.828Z,19.30
2017-08-15T00:24:15.299Z,19.20
2017-08-15T00:26:42.737Z,19.20
2017-08-15T00:29:10.174Z,19.10
2017-08-15T00:31:37.599Z,19.10
2017-08-15T00:34:05.029Z,19.00
2017-08-15T00:36:32.477Z,19.10
2017-08-15T00:38:59.945Z,19.10
2017-08-15T00:41:27.424Z,19.00
2017-08-15T00:43:54.856Z,19.00
2017-08-15T00:46:23.047Z,19.00
2017-08-15T00:48:50.476Z,19.00
2017-08-15T00:51:17.932Z,19.00
2017-08-15T00:53:45.363Z,18.90
2017-08-15T00:56:12.795Z,18.90
2017-08-15T00:58:40.228Z,19.00
2017-08-15T01:01:08.476Z,18.90
2017-08-15T01:03:36.678Z,18.90
2017-08-15T01:06:04.125Z,18.90
2017-08-15T01:08:31.583Z,18.90
2017-08-15T01:10:59.011Z,18.80
2017-08-15T01:13:26.444Z,18.80
2017-08-15T01:15:53.892Z,18.70
2017-08-15T01:18:21.345Z,18.80
2017-08-15T01:20:48.779Z,18.70
2017-08-15T01:23:16.203Z,18.70
2017-08-15T01:25:43.657Z,18.80
2017-08-15T01:28:11.091Z,18.80
2017-08-15T01:30:38.540Z,18.80
2017-08-15T01:33:05.960Z,18.80
2017-08-15T01:35:34.181Z,18.70
2017-08-15T01:38:01.639Z,18.70
2017-08-15T01:40:29.113Z,18.70
2017-08-15T01:42:56.551Z,18.70
2017-08-15T01:45:24.756Z,18.70
2017-08-15T01:47:52.203Z,18.70
2017-08-15T01:50:19.660Z,18.60
2017-08-15T01:52:47.189Z,18.60
2017-08-15T01:55:14.664Z,18.60
2017-08-15T01:57:42.113Z,18.60
2017-08-15T02:00:10.308Z,18.60
2017-08-15T02:02:37.797Z,18.50
2017-08-15T02:05:05.292Z,18.50
2017-08-15T02:07:32.734Z,18.50
2017-08-15T02:10:00.240Z,18.50
2017-08-15T02:12:27.776Z,18.50
2017-08-15T02:14:55.222Z,18.40
2017-08-15T02:17:22.664Z,18.30
2017-08-15T02:19:50.083Z,18.30
2017-08-15T02:22:17.547Z,18.30
2017-08-15T02:24:44.992Z,18.20
2017-08-15T02:27:12.542Z,18.10
2017-08-15T02:29:40.064Z,18.10
2017-08-15T02:32:07.484Z,18.10
2017-08-15T02:34:34.961Z,18.20
2017-08-15T02:37:02.400Z,18.20
2017-08-15T02:39:29.922Z,18.10
2017-08-15T02:41:57.367Z,18.10
2017-08-15T02:44:24.843Z,18.10
2017-08-15T02:46:53.102Z,18.10
2017-08-15T02:49:20.560Z,18.10
2017-08-15T02:51:48.740Z,18.10
2017-08-15T02:54:16.357Z,18.10
2017-08-15T02:56:43.841Z,18.00
2017-08-15T02:59:11.545Z,18.00
2017-08-15T03:01:39.767Z,18.00
2017-08-15T03:04:07.256Z,17.90
2017-08-15T03:06:35.461Z,17.80
2017-08-15T03:09:02.892Z,17.80
2017-08-15T03:11:30.331Z,17.80
2017-08-15T03:13:57.828Z,17.80
2017-08-15T03:16:25.374Z,17.80
2017-08-15T03:18:52.807Z,17.60
2017-08-15T03:21:20.244Z,17.50
2017-08-15T03:23:47.702Z,17.60
2017-08-15T03:26:15.156Z,17.50
2017-08-15T03:28:42.583Z,17.60
2017-08-15T03:31:10.012Z,17.60
2017-08-15T03:33:37.451Z,17.60
2017-08-15T03:36:04.883Z,17.60
2017-08-15T03:38:32.332Z,17.50
2017-08-15T03:40:59.761Z,17.60
2017-08-15T03:43:27.454Z,17.60
2017-08-15T03:45:55.010Z,17.60
2017-08-15T03:48:23.212Z,17.60
2017-08-15T03:50:50.647Z,17.60
2017-08-15T03:53:18.096Z,17.60
2017-08-15T03:55:45.556Z,17.70
2017-08-15T03:58:12.992Z,17.60
2017-08-15T04:00:40.420Z,17.50
2017-08-15T04:03:07.931Z,17.30
2017-08-15T04:05:36.252Z,17.10
2017-08-15T04:08:03.707Z,17.10
2017-08-15T04:10:31.147Z,17.10
2017-08-15T04:12:58.600Z,17.20
2017-08-15T04:15:26.046Z,17.20
2017-08-15T04:17:53.482Z,17.20
2017-08-15T04:20:20.911Z,17.20
2017-08-15T04:22:48.343Z,17.20
2017-08-15T04:25:15.791Z,17.30
2017-08-15T04:27:43.464Z,17.30
2017-08-15T04:30:10.895Z,17.30
2017-08-15T04:32:38.328Z,17.40
2017-08-15T04:35:05.767Z,17.40
2017-08-15T04:37:33.201Z,17.40
2017-08-15T04:40:00.667Z,17.40
2017-08-15T04:42:28.112Z,17.50
2017-08-15T04:44:55.548Z,17.50
2017-08-15T04:47:22.972Z,17.60
2017-08-15T04:49:50.767Z,17.60
2017-08-15T04:52:19.024Z,17.80
2017-08-15T04:54:46.460Z,17.80
2017-08-15T04:57:13.896Z,17.90
2017-08-15T04:59:41.323Z,17.90
2017-08-15T05:02:08.799Z,18.00
2017-08-15T05:04:37.008Z,18.00
2017-08-15T05:07:04.441Z,18.00
2017-08-15T05:09:31.875Z,18.00
2017-08-15T05:11:59.323Z,18.00
2017-08-15T05:14:26.749Z,18.00
2017-08-15T05:16:54.190Z,18.00
2017-08-15T05:19:21.619Z,18.00
2017-08-15T05:21:49.831Z,18.20
2017-08-15T05:24:17.277Z,18.10
2017-08-15T05:26:44.726Z,18.30
2017-08-15T05:29:12.197Z,18.30
2017-08-15T05:31:39.645Z,18.30
2017-08-15T05:34:07.367Z,18.30
2017-08-15T05:36:34.791Z,18.30
2017-08-15T05:39:02.252Z,18.40
2017-08-15T05:41:29.707Z,18.50
2017-08-15T05:43:57.132Z,18.60
2017-08-15T05:46:24.560Z,18.70
2017-08-15T05:48:52.072Z,18.90
2017-08-15T05:51:19.652Z,19.10
2017-08-15T05:53:47.079Z,19.30
2017-08-15T05:56:14.531Z,19.60
2017-08-15T05:58:42.015Z,19.80
2017-08-15T06:01:09.452Z,20.00
2017-08-15T06:03:36.899Z,20.40
2017-08-15T06:06:04.447Z,20.70
2017-08-15T06:08:31.888Z,21.00
2017-08-15T06:10:59.315Z,21.20
2017-08-15T06:13:26.773Z,21.60
2017-08-15T06:15:54.215Z,22.00
2017-08-15T06:18:21.652Z,22.40
2017-08-15T06:20:49.098Z,22.90
2017-08-15T06:23:16.647Z,23.10
2017-08-15T06:25:44.076Z,23.20
2017-08-15T06:28:11.495Z,23.60
2017-08-15T06:30:38.952Z,23.80
2017-08-15T06:33:06.409Z,24.20
2017-08-15T06:35:33.952Z,24.50
2017-08-15T06:38:01.385Z,24.70
2017-08-15T06:40:28.842Z,24.90
2017-08-15T06:42:56.525Z,25.30
2017-08-15T06:45:23.959Z,25.60
2017-08-15T06:47:52.163Z,25.80
2017-08-15T06:50:19.608Z,25.80
2017-08-15T06:52:47.100Z,25.90
2017-08-15T06:55:15.408Z,26.30
2017-08-15T06:57:42.853Z,26.30
2017-08-15T07:00:10.365Z,26.40
2017-08-15T07:02:37.868Z,26.70
2017-08-15T07:05:05.292Z,27.20
2017-08-15T07:07:32.853Z,27.50
2017-08-15T07:10:00.392Z,27.80
2017-08-15T07:12:27.827Z,28.00
2017-08-15T07:14:55.285Z,28.30
2017-08-15T07:17:22.741Z,28.60
2017-08-15T07:19:50.956Z,29.00
2017-08-15T07:22:18.492Z,29.00
2017-08-15T07:24:45.972Z,29.30
2017-08-15T07:27:13.420Z,29.50
2017-08-15T07:29:40.862Z,29.70
2017-08-15T07:32:08.297Z,29.80
2017-08-15T07:34:35.758Z,29.90
2017-08-15T07:37:03.184Z,30.10
2017-08-15T07:39:30.651Z,30.20
2017-08-15T07:41:58.075Z,30.30
2017-08-15T07:44:25.537Z,30.30
2017-08-15T07:46:53.739Z,30.40
2017-08-15T07:49:21.168Z,30.40
2017-08-15T07:51:48.675Z,30.40
2017-08-15T07:54:16.299Z,30.60
2017-08-15T07:56:43.739Z,30.80
2017-08-15T07:59:11.176Z,30.90
2017-08-15T08:01:38.621Z,31.10
2017-08-15T08:04:06.059Z,31.40
2017-08-15T08:06:33.491Z,31.40
2017-08-15T08:09:00.923Z,31.40
2017-08-15T08:11:28.399Z,31.30
2017-08-15T08:13:55.840Z,31.20
2017-08-15T08:16:23.271Z,31.10
2017-08-15T08:18:50.705Z,31.30
2017-08-15T08:21:18.227Z,31.20
2017-08-15T08:23:45.734Z,31.30
2017-08-15T08:26:13.168Z,31.40
2017-08-15T08:28:40.587Z,31.80
2017-08-15T08:31:08.015Z,31.50
2017-08-15T08:33:35.447Z,31.60
2017-08-15T08:36:03.018Z,31.60
2017-08-15T08:38:30.483Z,32.00
2017-08-15T08:40:57.916Z,32.20
2017-08-15T08:43:25.366Z,32.30
2017-08-15T08:45:53.404Z,32.30
2017-08-15T08:48:20.856Z,32.40
2017-08-15T08:50:48.300Z,32.50
2017-08-15T08:53:15.781Z,32.60
2017-08-15T08:55:43.991Z,32.50
2017-08-15T08:58:11.449Z,32.40
2017-08-15T09:00:38.912Z,33.00
2017-08-15T09:03:07.104Z,33.50
2017-08-15T09:05:34.535Z,33.50
2017-08-15T09:08:02.009Z,33.60
2017-08-15T09:10:29.480Z,33.90
2017-08-15T09:12:56.927Z,34.10
2017-08-15T09:15:24.383Z,34.30
2017-08-15T09:17:52.587Z,33.40
2017-08-15T09:20:20.016Z,33.40
2017-08-15T09:22:47.453Z,33.80
2017-08-15T09:25:14.888Z,34.10
2017-08-15T09:27:43.112Z,33.60
2017-08-15T09:30:10.643Z,33.60
2017-08-15T09:32:38.056Z,33.90
2017-08-15T09:35:05.507Z,34.10
2017-08-15T09:37:33.064Z,34.10
2017-08-15T09:40:00.539Z,34.20
2017-08-15T09:42:28.072Z,34.50
2017-08-15T09:44:55.525Z,34.60
2017-08-15T09:47:22.958Z,34.50
2017-08-15T09:49:50.421Z,34.50
2017-08-15T09:52:17.854Z,34.60
2017-08-15T09:54:45.295Z,34.70
2017-08-15T09:57:12.720Z,34.90
2017-08-15T09:59:40.160Z,34.90
2017-08-15T10:02:07.586Z,35.00
2017-08-15T10:04:35.056Z,35.00
2017-08-15T10:07:02.491Z,35.10
2017-08-15T10:09:29.948Z,35.00
2017-08-15T10:11:57.380Z,34.90
2017-08-15T10:14:24.828Z,35.30
2017-08-15T10:16:52.256Z,35.70
2017-08-15T10:19:19.698Z,35.50
2017-08-15T10:21:47.136Z,35.60
2017-08-15T10:24:14.580Z,35.50
2017-08-15T10:26:42.044Z,35.00
2017-08-15T10:29:09.490Z,34.80
2017-08-15T10:31:36.911Z,34.70
2017-08-15T10:34:04.360Z,34.60
2017-08-15T10:36:31.808Z,34.50
2017-08-15T10:38:59.249Z,34.60
2017-08-15T10:41:26.704Z,34.90
2017-08-15T10:43:54.137Z,35.30
2017-08-15T10:46:21.584Z,35.40
2017-08-15T10:48:49.004Z,35.50
2017-08-15T10:51:16.508Z,35.50
2017-08-15T10:53:43.931Z,35.50
2017-08-15T10:56:22.039Z,35.10
2017-08-15T10:58:49.467Z,35.10
2017-08-15T11:01:17.700Z,34.30
2017-08-15T11:03:45.127Z,34.30
2017-08-15T11:06:12.555Z,34.00
2017-08-15T11:08:40.032Z,33.60
2017-08-15T11:11:07.924Z,33.20
2017-08-15T11:13:36.151Z,32.70
2017-08-15T11:16:03.581Z,32.70
2017-08-15T11:18:31.032Z,32.60
2017-08-15T11:20:58.487Z,32.30
2017-08-15T11:23:25.992Z,32.00
2017-08-15T11:25:53.440Z,31.80
2017-08-15T11:28:20.896Z,31.60
2017-08-15T11:30:48.321Z,31.40
2017-08-15T11:33:15.898Z,31.20
2017-08-15T11:35:43.324Z,31.20
2017-08-15T11:38:10.782Z,31.20
2017-08-15T11:40:38.602Z,31.20
2017-08-15T11:43:06.011Z,31.20
2017-08-15T11:45:33.461Z,31.20
2017-08-15T11:48:00.906Z,31.20
2017-08-15T11:50:28.396Z,31.10
2017-08-15T11:52:55.944Z,31.00
2017-08-15T11:55:23.391Z,31.00
2017-08-15T11:57:51.396Z,31.00
2017-08-15T12:00:18.836Z,30.80
2017-08-15T12:02:46.320Z,30.80
2017-08-15T12:05:13.768Z,30.90
2017-08-15T12:07:41.296Z,30.80
2017-08-15T12:10:08.899Z,30.80
2017-08-15T12:12:36.352Z,30.70
2017-08-15T12:15:04.245Z,30.70
2017-08-15T12:17:31.688Z,30.70
2017-08-15T12:19:59.123Z,30.70
2017-08-15T12:22:26.600Z,30.60
2017-08-15T12:24:54.124Z,30.60
2017-08-15T12:27:21.553Z,30.60
2017-08-15T12:29:49.821Z,30.60
2017-08-15T12:32:17.265Z,30.60
2017-08-15T12:34:44.762Z,30.60
2017-08-15T12:37:12.959Z,30.50
2017-08-15T12:39:40.400Z,30.60
2017-08-15T12:42:07.844Z,30.40
2017-08-15T12:44:35.282Z,30.30
2017-08-15T12:47:02.742Z,30.30
2017-08-15T12:49:30.159Z,30.30
2017-08-15T12:51:57.599Z,30.20
2017-08-15T12:54:25.060Z,30.20
2017-08-15T12:56:52.492Z,30.20
2017-08-15T12:59:19.947Z,30.10
2017-08-15T13:01:47.404Z,30.20
2017-08-15T13:04:14.841Z,30.20
2017-08-15T13:06:42.289Z,30.20
2017-08-15T13:09:09.743Z,30.10
2017-08-15T13:11:37.276Z,30.10
2017-08-15T13:14:04.740Z,30.10
2017-08-15T13:16:32.971Z,30.00
2017-08-15T13:19:00.492Z,30.00
2017-08-15T13:21:28.074Z,30.00
2017-08-15T13:23:55.508Z,30.00
2017-08-15T13:26:22.961Z,30.00
2017-08-15T13:28:50.403Z,30.10
2017-08-15T13:31:17.839Z,30.00
2017-08-15T13:33:45.264Z,29.90
2017-08-15T13:36:12.701Z,29.90
2017-08-15T13:38:40.125Z,29.90
2017-08-15T13:41:07.551Z,29.90
2017-08-15T13:43:34.999Z,30.00
2017-08-15T13:46:02.435Z,30.00
2017-08-15T13:48:29.872Z,30.10
2017-08-15T13:50:58.076Z,30.00
2017-08-15T13:53:25.510Z,30.00
2017-08-15T13:55:53.103Z,30.10
2017-08-15T13:58:20.525Z,30.00
2017-08-15T14:00:47.987Z,30.00
2017-08-15T14:03:15.409Z,29.90
2017-08-15T14:05:42.836Z,30.00
2017-08-15T14:08:10.280Z,30.00
2017-08-15T14:10:37.741Z,30.00
2017-08-15T14:13:05.175Z,29.80
2017-08-15T14:15:32.616Z,29.90
2017-08-15T14:18:00.070Z,29.90
2017-08-15T14:20:27.505Z,30.00
2017-08-15T14:22:54.943Z,30.00
2017-08-15T14:25:22.372Z,30.10
2017-08-15T14:27:49.805Z,30.10
2017-08-15T14:30:17.353Z,30.00
2017-08-15T14:32:44.783Z,30.00
2017-08-15T14:35:12.219Z,30.10
2017-08-15T14:37:39.763Z,30.10
2017-08-15T14:40:07.188Z,30.10
2017-08-15T14:42:35.408Z,30.10
2017-08-15T14:45:02.840Z,30.20
2017-08-15T14:47:30.307Z,30.10
2017-08-15T14:49:57.736Z,30.10
2017-08-15T14:52:25.183Z,30.10
2017-08-15T14:54:52.607Z,30.10
2017-08-15T14:57:20.034Z,30.10
2017-08-15T14:59:47.468Z,30.10
2017-08-15T15:02:14.891Z,30.00
2017-08-15T15:04:42.329Z,29.90
2017-08-15T15:07:09.761Z,29.80
2017-08-15T15:09:37.960Z,29.90
2017-08-15T15:12:05.401Z,29.90
2017-08-15T15:14:32.819Z,29.80
2017-08-15T15:17:00.261Z,29.80
2017-08-15T15:19:28.464Z,29.60
2017-08-15T15:21:55.968Z,29.60
2017-08-15T15:24:23.450Z,29.70
2017-08-15T15:26:50.876Z,29.70
2017-08-15T15:29:18.329Z,29.70
2017-08-15T15:31:45.759Z,29.70
2017-08-15T15:34:13.191Z,29.70
2017-08-15T15:36:40.788Z,29.80
2017-08-15T15:39:08.207Z,29.80
2017-08-15T15:41:35.648Z,29.90
2017-08-15T15:44:03.104Z,29.90
2017-08-15T15:46:30.561Z,29.90
2017-08-15T15:48:57.996Z,29.90
2017-08-15T15:51:25.436Z,29.90
2017-08-15T15:53:52.860Z,29.90
2017-08-15T15:56:20.292Z,30.00
2017-08-15T15:58:47.748Z,30.00
2017-08-15T16:01:15.208Z,30.00
2017-08-15T16:03:42.631Z,30.00
2017-08-15T16:06:10.055Z,29.90
2017-08-15T16:08:37.491Z,29.90
2017-08-15T16:11:04.932Z,29.80
2017-08-15T16:13:32.380Z,29.80
2017-08-15T16:15:59.852Z,29.80
2017-08-15T16:18:27.370Z,29.70
2017-08-15T16:20:54.792Z,29.60
2017-08-15T16:23:22.289Z,29.60
2017-08-15T16:25:49.716Z,29.40
2017-08-15T16:28:17.227Z,29.30
2017-08-15T16:30:44.836Z,29.20
2017-08-15T16:33:12.272Z,29.10
2017-08-15T16:35:39.727Z,28.90
2017-08-15T16:38:07.265Z,28.90
2017-08-15T16:40:34.697Z,28.80
2017-08-15T16:43:02.199Z,28.60
2017-08-15T16:45:29.632Z,28.40
2017-08-15T16:47:57.060Z,28.20
2017-08-15T16:50:25.264Z,27.70
2017-08-15T16:52:52.772Z,27.70
2017-08-15T16:55:20.203Z,27.60
2017-08-15T16:57:57.821Z,27.50
2017-08-15T17:00:25.255Z,27.30
2017-08-15T17:02:52.691Z,27.00
2017-08-15T17:05:20.136Z,26.90
2017-08-15T17:07:47.628Z,26.80
2017-08-15T17:10:15.076Z,26.60
2017-08-15T17:12:42.531Z,26.50
2017-08-15T17:15:10.068Z,26.40
2017-08-15T17:17:37.483Z,26.30
2017-08-15T17:20:04.931Z,26.30
2017-08-15T17:22:32.368Z,26.20
2017-08-15T17:24:59.824Z,26.10
2017-08-15T17:27:27.279Z,26.10
2017-08-15T17:29:54.925Z,26.10
2017-08-15T17:32:22.467Z,26.00
2017-08-15T17:34:50.040Z,26.00
2017-08-15T17:37:17.481Z,25.90
2017-08-15T17:39:45.696Z,25.80
2017-08-15T17:42:13.137Z,25.70
2017-08-15T17:44:40.597Z,25.60
2017-08-15T17:47:08.147Z,25.50
2017-08-15T17:49:35.709Z,25.50
2017-08-15T17:52:03.923Z,25.50
2017-08-15T17:54:31.356Z,25.50
2017-08-15T17:56:58.814Z,25.60
2017-08-15T17:59:26.358Z,25.60
2017-08-15T18:01:54.832Z,25.70
2017-08-15T18:04:22.396Z,25.70
2017-08-15T18:06:49.840Z,25.80
2017-08-15T18:09:17.287Z,25.70
2017-08-15T18:11:44.820Z,25.70
2017-08-15T18:14:12.312Z,25.70
2017-08-15T18:16:39.759Z,25.70
2017-08-15T18:19:07.251Z,25.60
2017-08-15T18:21:34.743Z,25.70
2017-08-15T18:24:02.254Z,25.60
2017-08-15T18:26:30.508Z,25.60
2017-08-15T18:28:57.965Z,25.60
2017-08-15T18:31:26.174Z,25.50
2017-08-15T18:33:53.643Z,25.40
2017-08-15T18:36:21.084Z,25.30
2017-08-15T18:38:48.604Z,25.30
2017-08-15T18:41:16.027Z,25.20
2017-08-15T18:43:43.455Z,25.10
2017-08-15T18:46:11.653Z,25.00
2017-08-15T18:48:39.280Z,24.90
2017-08-15T18:51:06.787Z,24.90
2017-08-15T18:53:34.994Z,24.90
2017-08-15T18:56:02.467Z,24.90
2017-08-15T18:58:29.912Z,24.90
2017-08-15T19:00:57.469Z,24.80
2017-08-15T19:03:24.884Z,24.80
2017-08-15T19:05:52.376Z,24.70
2017-08-15T19:08:20.568Z,24.70
2017-08-15T19:10:48.044Z,24.70
2017-08-15T19:13:15.504Z,24.70
2017-08-15T19:15:43.039Z,24.70
2017-08-15T19:18:10.489Z,24.60
2017-08-15T19:20:37.944Z,24.60
2017-08-15T19:23:05.474Z,24.50
2017-08-15T19:25:33.004Z,24.40
2017-08-15T19:28:00.435Z,24.40
2017-08-15T19:30:28.279Z,24.40
2017-08-15T19:32:55.748Z,24.40
2017-08-15T19:35:23.191Z,24.30
2017-08-15T19:37:50.647Z,24.20
2017-08-15T19:40:18.872Z,24.20
2017-08-15T19:42:46.312Z,24.20
2017-08-15T19:45:13.891Z,24.20
2017-08-15T19:47:41.324Z,24.20
2017-08-15T19:50:08.756Z,24.20
2017-08-15T19:52:36.190Z,24.10
2017-08-15T19:55:03.643Z,24.10
2017-08-15T19:57:31.047Z,24.10
2017-08-15T19:59:58.484Z,24.10
2017-08-15T20:02:25.931Z,24.10
2017-08-15T20:04:53.365Z,24.00
2017-08-15T20:07:20.793Z,24.00
2017-08-15T20:09:48.228Z,23.90
2017-08-15T20:12:16.441Z,23.80
2017-08-15T20:14:43.872Z,23.80
2017-08-15T20:17:11.347Z,23.70
2017-08-15T20:19:38.873Z,23.50
2017-08-15T20:22:06.338Z,23.50
2017-08-15T20:24:33.786Z,23.50
2017-08-15T20:27:01.224Z,23.50
2017-08-15T20:29:28.672Z,23.20
2017-08-15T20:31:56.107Z,23.20
2017-08-15T20:34:23.730Z,23.30
2017-08-15T20:36:52.193Z,23.40
2017-08-15T20:39:20.454Z,23.30
2017-08-15T20:41:47.888Z,23.30
2017-08-15T20:44:15.307Z,23.30
2017-08-15T20:46:42.801Z,23.20
2017-08-15T20:49:10.321Z,23.10
2017-08-15T20:51:37.818Z,23.00
2017-08-15T20:54:05.325Z,23.00
2017-08-15T20:56:32.857Z,22.90
2017-08-15T20:59:00.472Z,22.80
2017-08-15T21:01:28.686Z,22.80
2017-08-15T21:03:56.148Z,22.80
2017-08-15T21:06:23.672Z,22.60
2017-08-15T21:08:51.103Z,22.60
2017-08-15T21:11:18.533Z,22.60
2017-08-15T21:13:45.980Z,22.80
2017-08-15T21:16:13.425Z,22.80
2017-08-15T21:18:40.895Z,22.80
2017-08-15T21:21:08.337Z,22.90
2017-08-15T21:23:35.882Z,22.90
2017-08-15T21:26:03.301Z,23.00
2017-08-15T21:28:30.725Z,23.00
2017-08-15T21:30:58.200Z,23.10
2017-08-15T21:33:25.628Z,23.10
2017-08-15T21:35:53.080Z,23.20
2017-08-15T21:38:20.516Z,23.30
2017-08-15T21:40:47.955Z,23.40
2017-08-15T21:43:15.395Z,23.40
2017-08-15T21:45:42.820Z,23.50
2017-08-15T21:48:10.307Z,23.50
2017-08-15T21:50:37.773Z,23.60
2017-08-15T21:53:06.070Z,23.50
2017-08-15T21:55:33.496Z,23.50
2017-08-15T21:58:00.934Z,23.50
2017-08-15T22:03:03.096Z,23.30
2017-08-15T22:05:30.595Z,23.10
2017-08-15T22:07:58.060Z,23.10
2017-08-15T22:10:25.606Z,23.00
2017-08-15T22:12:53.027Z,22.90
2017-08-15T22:15:20.475Z,22.70
2017-08-15T22:17:48.016Z,22.70
2017-08-15T22:20:15.466Z,22.70
2017-08-15T22:22:42.880Z,22.60
2017-08-15T22:25:10.316Z,22.60
2017-08-15T22:27:37.792Z,22.40
2017-08-15T22:30:05.255Z,22.30
2017-08-15T22:32:33.499Z,22.20
2017-08-15T22:35:00.947Z,22.10
2017-08-15T22:37:29.164Z,22.10
2017-08-15T22:39:56.605Z,22.10
2017-08-15T22:42:24.055Z,21.90
2017-08-15T22:44:51.527Z,21.90
2017-08-15T22:47:18.960Z,21.90
2017-08-15T22:49:46.410Z,21.80
2017-08-15T22:52:13.841Z,21.80
2017-08-15T22:54:41.283Z,21.70
2017-08-15T22:57:08.724Z,21.70
2017-08-15T22:59:36.152Z,21.60
2017-08-15T23:02:03.590Z,21.60
2017-08-15T23:04:31.041Z,21.50
2017-08-15T23:06:58.460Z,21.40
2017-08-15T23:09:25.920Z,21.30
2017-08-15T23:11:53.364Z,21.30
2017-08-15T23:14:20.803Z,21.30
2017-08-15T23:16:48.256Z,21.30
2017-08-15T23:19:15.702Z,21.30
2017-08-15T23:21:43.147Z,21.30
2017-08-15T23:24:10.616Z,21.30
2017-08-15T23:26:38.824Z,21.10
2017-08-15T23:29:06.256Z,21.10
2017-08-15T23:31:33.783Z,21.10
2017-08-15T23:34:01.991Z,21.10
2017-08-15T23:36:29.428Z,21.10
2017-08-15T23:38:56.886Z,21.00
2017-08-15T23:41:24.327Z,21.00
2017-08-15T23:43:51.746Z,21.10
2017-08-15T23:46:19.183Z,21.10
2017-08-15T23:48:46.656Z,21.10
2017-08-15T23:51:14.124Z,21.10
2017-08-15T23:53:41.547Z,21.10
2017-08-15T23:56:08.979Z,21.00
2017-08-15T23:58:36.427Z,20.90
